sensor_id;sensor_type;location;lat;lon;timestamp;temperature;humidity
6307;DHT22;3186;54.062;9.962;2022-12-07T00:03:36;3.40;99.90
6307;DHT22;3186;54.062;9.962;2022-12-07T00:06:02;3.40;99.90
6307;DHT22;3186;54.062;9.962;2022-12-07T00:08:28;3.40;99.90
6307;DHT22;3186;54.062;9.962;2022-12-07T00:10:55;3.40;99.90
6307;DHT22;3186;54.062;9.962;2022-12-07T00:13:20;3.40;99.90
6307;DHT22;3186;54.062;9.962;2022-12-07T00:15:46;3.40;99.90
6307;DHT22;3186;54.062;9.962;2022-12-07T00:18:12;3.40;99.90
6307;DHT22;3186;54.062;9.962;2022-12-07T00:20:38;3.40;99.90
6307;DHT22;3186;54.062;9.962;2022-12-07T00:23:03;3.40;99.90
6307;DHT22;3186;54.062;9.962;2022-12-07T00:25:30;3.40;99.90
6307;DHT22;3186;54.062;9.962;2022-12-07T00:27:56;3.40;99.90
6307;DHT22;3186;54.062;9.962;2022-12-07T00:30:23;3.30;99.90
6307;DHT22;3186;54.062;9.962;2022-12-07T00:32:49;4.10;99.90
6307;DHT22;3186;54.062;9.962;2022-12-07T00:35:15;3.30;99.90
6307;DHT22;3186;54.062;9.962;2022-12-07T00:37:41;3.30;99.90
6307;DHT22;3186;54.062;9.962;2022-12-07T00:40:07;3.20;99.90
6307;DHT22;3186;54.062;9.962;2022-12-07T00:42:33;3.20;99.90
6307;DHT22;3186;54.062;9.962;2022-12-07T00:44:58;3.20;99.90
6307;DHT22;3186;54.062;9.962;2022-12-07T00:47:24;3.20;99.90
6307;DHT22;3186;54.062;9.962;2022-12-07T00:49:50;3.20;99.90
6307;DHT22;3186;54.062;9.962;2022-12-07T00:52:16;3.20;99.90
6307;DHT22;3186;54.062;9.962;2022-12-07T00:54:41;3.20;99.90
6307;DHT22;3186;54.062;9.962;2022-12-07T00:57:07;3.30;99.90
6307;DHT22;3186;54.062;9.962;2022-12-07T00:59:33;3.20;99.90
6307;DHT22;3186;54.062;9.962;2022-12-07T01:01:59;3.20;99.90
6307;DHT22;3186;54.062;9.962;2022-12-07T01:04:25;3.20;99.90
6307;DHT22;3186;54.062;9.962;2022-12-07T01:06:50;3.20;99.90
6307;DHT22;3186;54.062;9.962;2022-12-07T01:09:16;3.20;99.90
6307;DHT22;3186;54.062;9.962;2022-12-07T01:11:42;3.20;99.90
6307;DHT22;3186;54.062;9.962;2022-12-07T01:14:09;3.20;99.90
6307;DHT22;3186;54.062;9.962;2022-12-07T01:16:34;3.20;99.90
6307;DHT22;3186;54.062;9.962;2022-12-07T01:19:01;3.30;99.90
6307;DHT22;3186;54.062;9.962;2022-12-07T01:21:32;3.30;99.90
6307;DHT22;3186;54.062;9.962;2022-12-07T01:24:09;3.30;99.90
6307;DHT22;3186;54.062;9.962;2022-12-07T01:26:35;3.30;99.90
6307;DHT22;3186;54.062;9.962;2022-12-07T01:29:01;3.30;99.90
6307;DHT22;3186;54.062;9.962;2022-12-07T01:31:28;3.30;99.90
6307;DHT22;3186;54.062;9.962;2022-12-07T01:33:57;3.30;99.90
6307;DHT22;3186;54.062;9.962;2022-12-07T01:36:31;3.30;99.90
6307;DHT22;3186;54.062;9.962;2022-12-07T01:39:00;3.40;99.90
6307;DHT22;3186;54.062;9.962;2022-12-07T01:41:29;3.40;99.90
6307;DHT22;3186;54.062;9.962;2022-12-07T01:44:30;3.40;99.90
6307;DHT22;3186;54.062;9.962;2022-12-07T01:47:00;3.40;99.90
6307;DHT22;3186;54.062;9.962;2022-12-07T01:49:41;3.30;99.90
6307;DHT22;3186;54.062;9.962;2022-12-07T01:52:30;3.30;99.90
6307;DHT22;3186;54.062;9.962;2022-12-07T01:55:01;3.40;99.90
6307;DHT22;3186;54.062;9.962;2022-12-07T01:57:29;3.40;99.90
6307;DHT22;3186;54.062;9.962;2022-12-07T01:59:56;3.40;99.90
6307;DHT22;3186;54.062;9.962;2022-12-07T02:02:29;3.40;99.90
6307;DHT22;3186;54.062;9.962;2022-12-07T02:04:59;3.40;99.90
6307;DHT22;3186;54.062;9.962;2022-12-07T02:07:25;3.40;99.90
6307;DHT22;3186;54.062;9.962;2022-12-07T02:09:52;3.40;99.90
6307;DHT22;3186;54.062;9.962;2022-12-07T02:12:19;3.30;99.90
6307;DHT22;3186;54.062;9.962;2022-12-07T02:14:45;3.40;99.90
6307;DHT22;3186;54.062;9.962;2022-12-07T02:17:20;3.40;99.90
6307;DHT22;3186;54.062;9.962;2022-12-07T02:20:08;3.40;99.90
6307;DHT22;3186;54.062;9.962;2022-12-07T02:28:49;3.40;99.90
6307;DHT22;3186;54.062;9.962;2022-12-07T02:31:18;3.40;99.90
6307;DHT22;3186;54.062;9.962;2022-12-07T02:34:07;3.30;99.90
6307;DHT22;3186;54.062;9.962;2022-12-07T02:36:39;3.40;99.90
6307;DHT22;3186;54.062;9.962;2022-12-07T02:39:16;3.30;99.90
6307;DHT22;3186;54.062;9.962;2022-12-07T02:41:51;3.30;99.90
6307;DHT22;3186;54.062;9.962;2022-12-07T02:44:24;3.30;99.90
6307;DHT22;3186;54.062;9.962;2022-12-07T02:46:58;3.20;99.90
6307;DHT22;3186;54.062;9.962;2022-12-07T02:49:26;3.00;99.90
6307;DHT22;3186;54.062;9.962;2022-12-07T02:51:53;3.10;99.90
6307;DHT22;3186;54.062;9.962;2022-12-07T02:54:20;3.20;99.90
6307;DHT22;3186;54.062;9.962;2022-12-07T03:00:07;3.10;99.90
6307;DHT22;3186;54.062;9.962;2022-12-07T03:10:58;3.20;99.90
6307;DHT22;3186;54.062;9.962;2022-12-07T03:16:07;3.10;99.90
6307;DHT22;3186;54.062;9.962;2022-12-07T03:18:41;3.10;99.90
6307;DHT22;3186;54.062;9.962;2022-12-07T03:21:13;3.30;99.90
6307;DHT22;3186;54.062;9.962;2022-12-07T03:23:42;3.20;99.90
6307;DHT22;3186;54.062;9.962;2022-12-07T03:26:12;3.20;99.90
6307;DHT22;3186;54.062;9.962;2022-12-07T03:28:42;3.10;99.90
6307;DHT22;3186;54.062;9.962;2022-12-07T03:31:25;3.20;99.90
6307;DHT22;3186;54.062;9.962;2022-12-07T03:34:38;3.20;99.90
6307;DHT22;3186;54.062;9.962;2022-12-07T03:36:47;3.20;99.90
6307;DHT22;3186;54.062;9.962;2022-12-07T03:39:29;3.20;99.90
6307;DHT22;3186;54.062;9.962;2022-12-07T03:41:59;3.20;99.90
6307;DHT22;3186;54.062;9.962;2022-12-07T03:44:26;3.20;99.90
6307;DHT22;3186;54.062;9.962;2022-12-07T03:47:03;3.20;99.90
6307;DHT22;3186;54.062;9.962;2022-12-07T03:49:50;3.20;99.90
6307;DHT22;3186;54.062;9.962;2022-12-07T03:52:40;3.20;99.90
6307;DHT22;3186;54.062;9.962;2022-12-07T03:57:34;3.20;99.90
6307;DHT22;3186;54.062;9.962;2022-12-07T04:00:05;3.10;99.90
6307;DHT22;3186;54.062;9.962;2022-12-07T04:02:38;3.20;99.90
6307;DHT22;3186;54.062;9.962;2022-12-07T04:05:04;3.10;99.90
6307;DHT22;3186;54.062;9.962;2022-12-07T04:07:30;3.20;99.90
6307;DHT22;3186;54.062;9.962;2022-12-07T04:09:56;3.20;99.90
6307;DHT22;3186;54.062;9.962;2022-12-07T04:12:22;3.20;99.90
6307;DHT22;3186;54.062;9.962;2022-12-07T04:14:48;3.20;99.90
6307;DHT22;3186;54.062;9.962;2022-12-07T04:17:14;3.20;99.90
6307;DHT22;3186;54.062;9.962;2022-12-07T04:19:40;3.20;99.90
6307;DHT22;3186;54.062;9.962;2022-12-07T04:22:07;3.20;99.90
6307;DHT22;3186;54.062;9.962;2022-12-07T04:24:33;3.10;99.90
6307;DHT22;3186;54.062;9.962;2022-12-07T04:26:59;3.20;99.90
6307;DHT22;3186;54.062;9.962;2022-12-07T04:29:25;3.10;99.90
6307;DHT22;3186;54.062;9.962;2022-12-07T04:31:51;3.20;99.90
6307;DHT22;3186;54.062;9.962;2022-12-07T04:34:18;3.10;99.90
6307;DHT22;3186;54.062;9.962;2022-12-07T04:36:45;3.10;99.90
6307;DHT22;3186;54.062;9.962;2022-12-07T04:39:31;3.10;99.90
6307;DHT22;3186;54.062;9.962;2022-12-07T04:41:58;3.10;99.90
6307;DHT22;3186;54.062;9.962;2022-12-07T04:44:25;3.10;99.90
6307;DHT22;3186;54.062;9.962;2022-12-07T04:46:51;3.10;99.90
6307;DHT22;3186;54.062;9.962;2022-12-07T04:49:18;3.10;99.90
6307;DHT22;3186;54.062;9.962;2022-12-07T04:51:45;3.00;99.90
6307;DHT22;3186;54.062;9.962;2022-12-07T04:54:12;3.00;99.90
6307;DHT22;3186;54.062;9.962;2022-12-07T04:56:39;3.00;99.90
6307;DHT22;3186;54.062;9.962;2022-12-07T04:59:05;3.00;99.90
6307;DHT22;3186;54.062;9.962;2022-12-07T05:01:32;3.00;99.90
6307;DHT22;3186;54.062;9.962;2022-12-07T05:03:58;2.90;99.90
6307;DHT22;3186;54.062;9.962;2022-12-07T05:06:24;2.90;99.90
6307;DHT22;3186;54.062;9.962;2022-12-07T05:08:49;2.90;99.90
6307;DHT22;3186;54.062;9.962;2022-12-07T05:11:16;2.80;99.90
6307;DHT22;3186;54.062;9.962;2022-12-07T05:14:01;2.90;99.90
6307;DHT22;3186;54.062;9.962;2022-12-07T05:16:27;2.80;99.90
6307;DHT22;3186;54.062;9.962;2022-12-07T05:18:53;2.80;99.90
6307;DHT22;3186;54.062;9.962;2022-12-07T05:21:19;2.80;99.90
6307;DHT22;3186;54.062;9.962;2022-12-07T05:23:45;2.80;99.90
6307;DHT22;3186;54.062;9.962;2022-12-07T05:26:11;2.80;99.90
6307;DHT22;3186;54.062;9.962;2022-12-07T05:28:37;2.80;99.90
6307;DHT22;3186;54.062;9.962;2022-12-07T05:31:03;2.70;99.90
6307;DHT22;3186;54.062;9.962;2022-12-07T05:33:29;2.70;99.90
6307;DHT22;3186;54.062;9.962;2022-12-07T05:35:55;2.70;99.90
6307;DHT22;3186;54.062;9.962;2022-12-07T05:38:20;2.70;99.90
6307;DHT22;3186;54.062;9.962;2022-12-07T05:40:46;2.70;99.90
6307;DHT22;3186;54.062;9.962;2022-12-07T05:43:12;2.60;99.90
6307;DHT22;3186;54.062;9.962;2022-12-07T05:45:38;2.60;99.90
6307;DHT22;3186;54.062;9.962;2022-12-07T05:48:04;2.60;99.90
6307;DHT22;3186;54.062;9.962;2022-12-07T05:50:29;2.60;99.90
6307;DHT22;3186;54.062;9.962;2022-12-07T05:53:01;2.50;99.90
6307;DHT22;3186;54.062;9.962;2022-12-07T05:55:27;2.50;99.90
6307;DHT22;3186;54.062;9.962;2022-12-07T05:57:53;2.50;99.90
6307;DHT22;3186;54.062;9.962;2022-12-07T06:00:37;2.50;99.90
6307;DHT22;3186;54.062;9.962;2022-12-07T06:03:03;2.50;99.90
6307;DHT22;3186;54.062;9.962;2022-12-07T06:05:29;2.40;99.90
6307;DHT22;3186;54.062;9.962;2022-12-07T06:07:55;2.80;99.90
6307;DHT22;3186;54.062;9.962;2022-12-07T06:10:20;2.40;99.90
6307;DHT22;3186;54.062;9.962;2022-12-07T06:12:46;2.40;99.90
6307;DHT22;3186;54.062;9.962;2022-12-07T06:15:12;2.40;99.90
6307;DHT22;3186;54.062;9.962;2022-12-07T06:17:39;2.40;99.90
6307;DHT22;3186;54.062;9.962;2022-12-07T06:20:06;2.30;99.90
6307;DHT22;3186;54.062;9.962;2022-12-07T06:22:32;2.30;99.90
6307;DHT22;3186;54.062;9.962;2022-12-07T06:24:57;2.30;99.90
6307;DHT22;3186;54.062;9.962;2022-12-07T06:27:23;2.20;99.90
6307;DHT22;3186;54.062;9.962;2022-12-07T06:29:49;2.20;99.90
6307;DHT22;3186;54.062;9.962;2022-12-07T06:32:15;2.20;99.90
6307;DHT22;3186;54.062;9.962;2022-12-07T06:34:41;2.20;99.90
6307;DHT22;3186;54.062;9.962;2022-12-07T06:37:07;2.20;99.90
6307;DHT22;3186;54.062;9.962;2022-12-07T06:39:32;2.10;99.90
6307;DHT22;3186;54.062;9.962;2022-12-07T06:42:01;2.10;99.90
6307;DHT22;3186;54.062;9.962;2022-12-07T06:44:27;2.10;99.90
6307;DHT22;3186;54.062;9.962;2022-12-07T06:46:53;2.10;99.90
6307;DHT22;3186;54.062;9.962;2022-12-07T06:49:19;2.00;99.90
6307;DHT22;3186;54.062;9.962;2022-12-07T06:51:45;2.00;99.90
6307;DHT22;3186;54.062;9.962;2022-12-07T06:54:12;2.00;99.90
6307;DHT22;3186;54.062;9.962;2022-12-07T06:56:38;2.00;99.90
6307;DHT22;3186;54.062;9.962;2022-12-07T06:59:05;2.00;99.90
6307;DHT22;3186;54.062;9.962;2022-12-07T07:01:33;2.00;99.90
6307;DHT22;3186;54.062;9.962;2022-12-07T07:03:59;1.90;99.90
6307;DHT22;3186;54.062;9.962;2022-12-07T07:06:25;1.90;99.90
6307;DHT22;3186;54.062;9.962;2022-12-07T07:08:51;1.90;99.90
6307;DHT22;3186;54.062;9.962;2022-12-07T07:11:17;1.90;99.90
6307;DHT22;3186;54.062;9.962;2022-12-07T07:13:43;1.90;99.90
6307;DHT22;3186;54.062;9.962;2022-12-07T07:16:09;1.90;99.90
6307;DHT22;3186;54.062;9.962;2022-12-07T07:18:36;1.80;99.90
6307;DHT22;3186;54.062;9.962;2022-12-07T07:21:01;1.80;99.90
6307;DHT22;3186;54.062;9.962;2022-12-07T07:23:28;1.80;99.90
6307;DHT22;3186;54.062;9.962;2022-12-07T07:25:53;1.80;99.90
6307;DHT22;3186;54.062;9.962;2022-12-07T07:28:19;1.80;99.90
6307;DHT22;3186;54.062;9.962;2022-12-07T07:30:45;1.80;99.90
6307;DHT22;3186;54.062;9.962;2022-12-07T07:33:12;1.80;99.90
6307;DHT22;3186;54.062;9.962;2022-12-07T07:35:39;1.80;99.90
6307;DHT22;3186;54.062;9.962;2022-12-07T07:38:05;1.80;99.90
6307;DHT22;3186;54.062;9.962;2022-12-07T07:40:31;1.70;99.90
6307;DHT22;3186;54.062;9.962;2022-12-07T07:42:58;1.70;99.90
6307;DHT22;3186;54.062;9.962;2022-12-07T07:45:25;1.70;99.90
6307;DHT22;3186;54.062;9.962;2022-12-07T07:47:51;1.70;99.90
6307;DHT22;3186;54.062;9.962;2022-12-07T07:50:18;1.70;99.90
6307;DHT22;3186;54.062;9.962;2022-12-07T07:52:44;1.70;99.90
6307;DHT22;3186;54.062;9.962;2022-12-07T07:55:11;1.70;99.90
6307;DHT22;3186;54.062;9.962;2022-12-07T07:57:38;1.70;99.90
6307;DHT22;3186;54.062;9.962;2022-12-07T08:00:06;1.60;99.90
6307;DHT22;3186;54.062;9.962;2022-12-07T08:02:38;1.60;99.90
6307;DHT22;3186;54.062;9.962;2022-12-07T08:05:04;1.60;99.90
6307;DHT22;3186;54.062;9.962;2022-12-07T08:07:30;1.60;99.90
6307;DHT22;3186;54.062;9.962;2022-12-07T08:09:56;1.60;99.90
6307;DHT22;3186;54.062;9.962;2022-12-07T08:12:22;1.60;99.90
6307;DHT22;3186;54.062;9.962;2022-12-07T08:14:48;1.60;99.90
6307;DHT22;3186;54.062;9.962;2022-12-07T08:17:13;1.60;99.90
6307;DHT22;3186;54.062;9.962;2022-12-07T08:19:40;1.60;99.90
6307;DHT22;3186;54.062;9.962;2022-12-07T08:22:06;1.60;99.90
6307;DHT22;3186;54.062;9.962;2022-12-07T08:24:35;1.60;99.90
6307;DHT22;3186;54.062;9.962;2022-12-07T08:27:02;1.60;99.90
6307;DHT22;3186;54.062;9.962;2022-12-07T08:29:28;1.70;99.90
6307;DHT22;3186;54.062;9.962;2022-12-07T08:31:54;1.70;99.90
6307;DHT22;3186;54.062;9.962;2022-12-07T08:34:20;1.70;99.90
6307;DHT22;3186;54.062;9.962;2022-12-07T08:36:46;1.60;99.90
6307;DHT22;3186;54.062;9.962;2022-12-07T08:39:12;1.70;99.90
6307;DHT22;3186;54.062;9.962;2022-12-07T08:41:38;1.70;99.90
6307;DHT22;3186;54.062;9.962;2022-12-07T08:44:04;1.70;99.90
6307;DHT22;3186;54.062;9.962;2022-12-07T08:49:18;1.70;99.90
6307;DHT22;3186;54.062;9.962;2022-12-07T08:51:46;1.70;99.90
6307;DHT22;3186;54.062;9.962;2022-12-07T08:54:15;1.70;99.90
6307;DHT22;3186;54.062;9.962;2022-12-07T08:56:43;1.70;99.90
6307;DHT22;3186;54.062;9.962;2022-12-07T08:59:10;1.70;99.90
6307;DHT22;3186;54.062;9.962;2022-12-07T09:01:37;1.70;99.90
6307;DHT22;3186;54.062;9.962;2022-12-07T09:04:02;1.70;99.90
6307;DHT22;3186;54.062;9.962;2022-12-07T09:06:28;1.70;99.90
6307;DHT22;3186;54.062;9.962;2022-12-07T09:08:58;1.70;99.90
6307;DHT22;3186;54.062;9.962;2022-12-07T09:11:24;1.80;99.90
6307;DHT22;3186;54.062;9.962;2022-12-07T09:13:50;1.80;99.90
6307;DHT22;3186;54.062;9.962;2022-12-07T09:16:16;1.80;99.90
6307;DHT22;3186;54.062;9.962;2022-12-07T09:18:42;1.80;99.90
6307;DHT22;3186;54.062;9.962;2022-12-07T09:21:08;1.80;99.90
6307;DHT22;3186;54.062;9.962;2022-12-07T09:23:34;1.80;99.90
6307;DHT22;3186;54.062;9.962;2022-12-07T09:26:04;1.90;99.90
6307;DHT22;3186;54.062;9.962;2022-12-07T09:28:31;1.90;99.90
6307;DHT22;3186;54.062;9.962;2022-12-07T09:30:56;1.90;99.90
6307;DHT22;3186;54.062;9.962;2022-12-07T09:33:22;1.90;99.90
6307;DHT22;3186;54.062;9.962;2022-12-07T09:35:50;1.90;99.90
6307;DHT22;3186;54.062;9.962;2022-12-07T09:38:16;1.90;99.90
6307;DHT22;3186;54.062;9.962;2022-12-07T09:40:43;1.90;99.90
6307;DHT22;3186;54.062;9.962;2022-12-07T09:43:21;2.00;99.90
6307;DHT22;3186;54.062;9.962;2022-12-07T09:45:54;2.00;99.90
6307;DHT22;3186;54.062;9.962;2022-12-07T09:48:29;2.00;99.90
6307;DHT22;3186;54.062;9.962;2022-12-07T09:50:57;1.90;99.90
6307;DHT22;3186;54.062;9.962;2022-12-07T09:55:54;1.90;99.90
6307;DHT22;3186;54.062;9.962;2022-12-07T09:58:24;2.00;99.90
6307;DHT22;3186;54.062;9.962;2022-12-07T10:00:58;2.00;99.90
6307;DHT22;3186;54.062;9.962;2022-12-07T10:03:27;2.00;99.90
6307;DHT22;3186;54.062;9.962;2022-12-07T10:05:54;2.00;99.90
6307;DHT22;3186;54.062;9.962;2022-12-07T10:08:21;2.10;99.90
6307;DHT22;3186;54.062;9.962;2022-12-07T10:10:54;2.10;99.90
6307;DHT22;3186;54.062;9.962;2022-12-07T10:16:00;2.10;99.90
6307;DHT22;3186;54.062;9.962;2022-12-07T10:21:03;2.10;99.90
6307;DHT22;3186;54.062;9.962;2022-12-07T10:23:29;2.20;99.90
6307;DHT22;3186;54.062;9.962;2022-12-07T10:25:55;2.20;99.90
6307;DHT22;3186;54.062;9.962;2022-12-07T10:28:22;2.20;99.90
6307;DHT22;3186;54.062;9.962;2022-12-07T10:35:58;2.30;99.90
6307;DHT22;3186;54.062;9.962;2022-12-07T10:38:25;2.40;99.90
6307;DHT22;3186;54.062;9.962;2022-12-07T10:41:06;2.40;99.90
6307;DHT22;3186;54.062;9.962;2022-12-07T10:43:32;2.40;99.90
6307;DHT22;3186;54.062;9.962;2022-12-07T10:46:26;2.40;99.90
6307;DHT22;3186;54.062;9.962;2022-12-07T10:51:44;2.60;99.90
6307;DHT22;3186;54.062;9.962;2022-12-07T10:54:21;2.60;99.90
6307;DHT22;3186;54.062;9.962;2022-12-07T10:57:07;2.60;99.90
6307;DHT22;3186;54.062;9.962;2022-12-07T11:05:27;2.50;99.90
6307;DHT22;3186;54.062;9.962;2022-12-07T11:16:01;2.60;99.90
6307;DHT22;3186;54.062;9.962;2022-12-07T11:18:29;2.60;99.90
6307;DHT22;3186;54.062;9.962;2022-12-07T11:26:50;2.70;99.90
6307;DHT22;3186;54.062;9.962;2022-12-07T11:37:36;2.80;99.90
6307;DHT22;3186;54.062;9.962;2022-12-07T11:40:17;2.70;99.90
6307;DHT22;3186;54.062;9.962;2022-12-07T11:45:42;2.80;99.90
6307;DHT22;3186;54.062;9.962;2022-12-07T11:49:01;2.80;99.90
6307;DHT22;3186;54.062;9.962;2022-12-07T11:51:28;2.80;99.90
6307;DHT22;3186;54.062;9.962;2022-12-07T11:54:03;2.80;99.90
6307;DHT22;3186;54.062;9.962;2022-12-07T11:56:34;2.90;99.90
6307;DHT22;3186;54.062;9.962;2022-12-07T11:59:10;2.90;99.90
6307;DHT22;3186;54.062;9.962;2022-12-07T12:04:38;2.90;99.90
6307;DHT22;3186;54.062;9.962;2022-12-07T12:07:07;3.00;99.90
6307;DHT22;3186;54.062;9.962;2022-12-07T12:09:54;3.00;99.90
6307;DHT22;3186;54.062;9.962;2022-12-07T12:15:09;2.90;99.90
6307;DHT22;3186;54.062;9.962;2022-12-07T12:20:30;3.00;99.90
6307;DHT22;3186;54.062;9.962;2022-12-07T12:23:20;3.00;99.90
6307;DHT22;3186;54.062;9.962;2022-12-07T12:25:47;3.00;99.90
6307;DHT22;3186;54.062;9.962;2022-12-07T12:33:52;3.00;99.90
6307;DHT22;3186;54.062;9.962;2022-12-07T12:36:44;3.10;99.90
6307;DHT22;3186;54.062;9.962;2022-12-07T12:39:11;3.00;99.90
6307;DHT22;3186;54.062;9.962;2022-12-07T12:54:25;3.00;99.90
6307;DHT22;3186;54.062;9.962;2022-12-07T12:59:23;3.10;99.90
6307;DHT22;3186;54.062;9.962;2022-12-07T13:01:53;3.00;99.90
6307;DHT22;3186;54.062;9.962;2022-12-07T13:06:54;3.10;99.90
6307;DHT22;3186;54.062;9.962;2022-12-07T13:09:27;3.20;99.90
6307;DHT22;3186;54.062;9.962;2022-12-07T13:12:01;3.10;99.90
6307;DHT22;3186;54.062;9.962;2022-12-07T13:17:11;3.10;99.90
6307;DHT22;3186;54.062;9.962;2022-12-07T13:25:13;3.10;99.90
6307;DHT22;3186;54.062;9.962;2022-12-07T13:27:56;3.20;99.90
6307;DHT22;3186;54.062;9.962;2022-12-07T13:30:23;3.20;99.90
6307;DHT22;3186;54.062;9.962;2022-12-07T13:32:57;3.10;99.90
6307;DHT22;3186;54.062;9.962;2022-12-07T13:37:57;3.10;99.90
6307;DHT22;3186;54.062;9.962;2022-12-07T13:40:23;3.10;99.90
6307;DHT22;3186;54.062;9.962;2022-12-07T13:43:01;3.20;99.90
6307;DHT22;3186;54.062;9.962;2022-12-07T13:50:42;3.20;99.90
6307;DHT22;3186;54.062;9.962;2022-12-07T13:53:12;3.30;99.90
6307;DHT22;3186;54.062;9.962;2022-12-07T13:55:45;3.20;99.90
6307;DHT22;3186;54.062;9.962;2022-12-07T13:58:11;3.20;99.90
6307;DHT22;3186;54.062;9.962;2022-12-07T14:00:37;3.20;99.90
6307;DHT22;3186;54.062;9.962;2022-12-07T14:05:37;3.10;99.90
6307;DHT22;3186;54.062;9.962;2022-12-07T14:08:21;3.20;99.90
6307;DHT22;3186;54.062;9.962;2022-12-07T14:15:52;3.10;99.90
6307;DHT22;3186;54.062;9.962;2022-12-07T14:18:41;3.10;99.90
6307;DHT22;3186;54.062;9.962;2022-12-07T14:23:38;3.10;99.90
6307;DHT22;3186;54.062;9.962;2022-12-07T14:26:12;3.10;99.90
6307;DHT22;3186;54.062;9.962;2022-12-07T14:28:42;3.10;99.90
6307;DHT22;3186;54.062;9.962;2022-12-07T14:31:21;3.10;99.90
6307;DHT22;3186;54.062;9.962;2022-12-07T14:33:49;3.10;99.90
6307;DHT22;3186;54.062;9.962;2022-12-07T14:36:15;3.10;99.90
6307;DHT22;3186;54.062;9.962;2022-12-07T14:38:41;3.20;99.90
6307;DHT22;3186;54.062;9.962;2022-12-07T14:41:14;3.20;99.90
6307;DHT22;3186;54.062;9.962;2022-12-07T14:43:59;3.20;99.90
6307;DHT22;3186;54.062;9.962;2022-12-07T14:46:25;3.10;99.90
6307;DHT22;3186;54.062;9.962;2022-12-07T14:48:51;3.10;99.90
6307;DHT22;3186;54.062;9.962;2022-12-07T14:51:17;3.10;99.90
6307;DHT22;3186;54.062;9.962;2022-12-07T14:53:46;3.10;99.90
6307;DHT22;3186;54.062;9.962;2022-12-07T14:56:13;2.90;99.90
6307;DHT22;3186;54.062;9.962;2022-12-07T14:58:40;2.90;99.90
6307;DHT22;3186;54.062;9.962;2022-12-07T15:01:05;3.00;99.90
6307;DHT22;3186;54.062;9.962;2022-12-07T15:03:31;2.90;99.90
6307;DHT22;3186;54.062;9.962;2022-12-07T15:05:57;2.90;99.90
6307;DHT22;3186;54.062;9.962;2022-12-07T15:08:23;2.80;99.90
6307;DHT22;3186;54.062;9.962;2022-12-07T15:10:49;2.70;99.90
6307;DHT22;3186;54.062;9.962;2022-12-07T15:13:15;2.90;99.90
6307;DHT22;3186;54.062;9.962;2022-12-07T15:15:59;2.80;99.90
6307;DHT22;3186;54.062;9.962;2022-12-07T15:18:25;2.80;99.90
6307;DHT22;3186;54.062;9.962;2022-12-07T15:20:51;2.70;99.90
6307;DHT22;3186;54.062;9.962;2022-12-07T15:23:17;1.50;99.90
6307;DHT22;3186;54.062;9.962;2022-12-07T15:25:44;2.70;99.90
6307;DHT22;3186;54.062;9.962;2022-12-07T15:28:11;2.70;99.90
6307;DHT22;3186;54.062;9.962;2022-12-07T15:30:38;2.80;99.90
6307;DHT22;3186;54.062;9.962;2022-12-07T15:33:04;2.70;99.90
6307;DHT22;3186;54.062;9.962;2022-12-07T15:35:29;2.70;99.90
6307;DHT22;3186;54.062;9.962;2022-12-07T15:37:55;2.70;99.90
6307;DHT22;3186;54.062;9.962;2022-12-07T15:40:21;2.70;99.90
6307;DHT22;3186;54.062;9.962;2022-12-07T15:42:47;2.70;99.90
6307;DHT22;3186;54.062;9.962;2022-12-07T15:45:12;2.70;99.90
6307;DHT22;3186;54.062;9.962;2022-12-07T15:47:42;2.70;99.90
6307;DHT22;3186;54.062;9.962;2022-12-07T15:50:10;2.60;99.90
6307;DHT22;3186;54.062;9.962;2022-12-07T15:52:39;2.70;99.90
6307;DHT22;3186;54.062;9.962;2022-12-07T15:55:05;2.60;99.90
6307;DHT22;3186;54.062;9.962;2022-12-07T15:57:33;2.60;99.90
6307;DHT22;3186;54.062;9.962;2022-12-07T16:00:00;2.50;99.90
6307;DHT22;3186;54.062;9.962;2022-12-07T16:02:26;2.50;99.90
6307;DHT22;3186;54.062;9.962;2022-12-07T16:04:52;2.50;99.90
6307;DHT22;3186;54.062;9.962;2022-12-07T16:07:18;2.50;99.90
6307;DHT22;3186;54.062;9.962;2022-12-07T16:09:45;2.50;99.90
6307;DHT22;3186;54.062;9.962;2022-12-07T16:12:13;2.50;99.90
6307;DHT22;3186;54.062;9.962;2022-12-07T16:14:39;2.40;99.90
6307;DHT22;3186;54.062;9.962;2022-12-07T16:17:07;2.40;99.90
6307;DHT22;3186;54.062;9.962;2022-12-07T16:19:33;2.40;99.90
6307;DHT22;3186;54.062;9.962;2022-12-07T16:21:59;2.40;99.90
6307;DHT22;3186;54.062;9.962;2022-12-07T16:24:25;2.40;99.90
6307;DHT22;3186;54.062;9.962;2022-12-07T16:26:51;2.30;99.90
6307;DHT22;3186;54.062;9.962;2022-12-07T16:29:19;2.40;99.90
6307;DHT22;3186;54.062;9.962;2022-12-07T16:31:45;2.30;99.90
6307;DHT22;3186;54.062;9.962;2022-12-07T16:34:11;2.30;99.90
6307;DHT22;3186;54.062;9.962;2022-12-07T16:36:37;2.30;99.90
6307;DHT22;3186;54.062;9.962;2022-12-07T16:39:03;2.30;99.90
6307;DHT22;3186;54.062;9.962;2022-12-07T16:41:29;2.30;99.90
6307;DHT22;3186;54.062;9.962;2022-12-07T16:43:55;2.30;99.90
6307;DHT22;3186;54.062;9.962;2022-12-07T16:46:21;2.30;99.90
6307;DHT22;3186;54.062;9.962;2022-12-07T16:48:47;2.30;99.90
6307;DHT22;3186;54.062;9.962;2022-12-07T16:51:13;2.30;99.90
6307;DHT22;3186;54.062;9.962;2022-12-07T16:53:41;2.30;99.90
6307;DHT22;3186;54.062;9.962;2022-12-07T16:56:12;2.20;99.90
6307;DHT22;3186;54.062;9.962;2022-12-07T16:58:38;2.20;99.90
6307;DHT22;3186;54.062;9.962;2022-12-07T17:01:16;2.20;99.90
6307;DHT22;3186;54.062;9.962;2022-12-07T17:03:42;2.20;99.90
6307;DHT22;3186;54.062;9.962;2022-12-07T17:06:21;2.20;99.90
6307;DHT22;3186;54.062;9.962;2022-12-07T17:08:47;2.20;99.90
6307;DHT22;3186;54.062;9.962;2022-12-07T17:11:25;2.20;99.90
6307;DHT22;3186;54.062;9.962;2022-12-07T17:13:51;2.20;99.90
6307;DHT22;3186;54.062;9.962;2022-12-07T17:16:36;2.10;99.90
6307;DHT22;3186;54.062;9.962;2022-12-07T17:19:11;2.10;99.90
6307;DHT22;3186;54.062;9.962;2022-12-07T17:21:37;2.10;99.90
6307;DHT22;3186;54.062;9.962;2022-12-07T17:24:05;2.10;99.90
6307;DHT22;3186;54.062;9.962;2022-12-07T17:26:32;2.10;99.90
6307;DHT22;3186;54.062;9.962;2022-12-07T17:28:58;2.10;99.90
6307;DHT22;3186;54.062;9.962;2022-12-07T17:31:25;2.10;99.90
6307;DHT22;3186;54.062;9.962;2022-12-07T17:33:51;2.20;99.90
6307;DHT22;3186;54.062;9.962;2022-12-07T17:36:22;2.10;99.90
6307;DHT22;3186;54.062;9.962;2022-12-07T17:38:49;2.10;99.90
6307;DHT22;3186;54.062;9.962;2022-12-07T17:41:21;2.10;99.90
6307;DHT22;3186;54.062;9.962;2022-12-07T17:44:08;2.10;99.90
6307;DHT22;3186;54.062;9.962;2022-12-07T17:46:35;2.10;99.90
6307;DHT22;3186;54.062;9.962;2022-12-07T17:49:01;2.10;99.90
6307;DHT22;3186;54.062;9.962;2022-12-07T17:51:27;2.10;99.90
6307;DHT22;3186;54.062;9.962;2022-12-07T17:54:12;2.10;99.90
6307;DHT22;3186;54.062;9.962;2022-12-07T17:56:38;2.10;99.90
6307;DHT22;3186;54.062;9.962;2022-12-07T17:59:04;2.10;99.90
6307;DHT22;3186;54.062;9.962;2022-12-07T18:01:31;2.10;99.90
6307;DHT22;3186;54.062;9.962;2022-12-07T18:03:57;2.00;99.90
6307;DHT22;3186;54.062;9.962;2022-12-07T18:06:23;2.00;99.90
6307;DHT22;3186;54.062;9.962;2022-12-07T18:08:48;2.00;99.90
6307;DHT22;3186;54.062;9.962;2022-12-07T18:11:14;2.00;99.90
6307;DHT22;3186;54.062;9.962;2022-12-07T18:13:40;2.00;99.90
6307;DHT22;3186;54.062;9.962;2022-12-07T18:16:09;2.00;99.90
6307;DHT22;3186;54.062;9.962;2022-12-07T18:18:36;2.00;99.90
6307;DHT22;3186;54.062;9.962;2022-12-07T18:21:04;2.00;99.90
6307;DHT22;3186;54.062;9.962;2022-12-07T18:23:30;2.00;99.90
6307;DHT22;3186;54.062;9.962;2022-12-07T18:25:58;2.00;99.90
6307;DHT22;3186;54.062;9.962;2022-12-07T18:28:23;2.00;99.90
6307;DHT22;3186;54.062;9.962;2022-12-07T18:30:49;2.00;99.90
6307;DHT22;3186;54.062;9.962;2022-12-07T18:33:19;2.00;99.90
6307;DHT22;3186;54.062;9.962;2022-12-07T18:35:46;1.90;99.90
6307;DHT22;3186;54.062;9.962;2022-12-07T18:38:16;1.90;99.90
6307;DHT22;3186;54.062;9.962;2022-12-07T18:40:43;1.90;99.90